createdAt,value
2018-07-25T05:50:03.203Z,22.9
2018-07-25T05:52:34.786Z,23
2018-07-25T05:57:26.788Z,23.3
2018-07-25T06:00:09.070Z,23.5
2018-07-25T06:05:00.773Z,23.7
2018-07-25T06:10:02.964Z,23.9
2018-07-25T06:15:02.780Z,24.2
2018-07-25T06:20:02.611Z,24.3
2018-07-25T06:25:03.314Z,24.5
2018-07-25T06:29:15.963Z,25
2018-07-25T06:30:27.060Z,25.1
2018-07-25T06:31:27.973Z,25.2
2018-07-25T07:04:02.833Z,27
2018-07-25T07:09:02.695Z,27.3
2018-07-25T07:14:02.867Z,27.5
2018-07-25T07:19:02.555Z,27.7
2018-07-25T07:24:02.468Z,28
2018-07-25T07:29:03.446Z,28.3
2018-07-25T07:34:02.433Z,28.4
2018-07-25T07:39:02.429Z,28.4
2018-07-25T07:44:03.135Z,28.4
2018-07-25T07:49:02.941Z,28.3
2018-07-25T07:53:03.271Z,28
2018-07-25T07:53:21.192Z,28
2018-07-25T07:58:13.444Z,28.2
2018-07-25T08:03:05.460Z,28.4
2018-07-25T08:08:03.423Z,28.5
2018-07-25T08:13:02.428Z,28.6
2018-07-25T08:18:03.696Z,28.7
2018-07-25T08:23:02.600Z,28.9
2018-07-25T08:28:02.731Z,29.2
2018-07-25T08:33:02.392Z,29.9
2018-07-25T08:38:02.457Z,31
2018-07-25T08:43:03.582Z,32.2
2018-07-25T08:48:02.466Z,33.3
2018-07-25T08:53:02.717Z,34
2018-07-25T08:58:02.404Z,34.7
2018-07-25T09:02:29.726Z,36.8
2018-07-25T09:07:22.010Z,36.9
2018-07-25T09:12:13.832Z,36.8
2018-07-25T09:17:05.758Z,37.2
2018-07-25T09:22:02.635Z,37.6
2018-07-25T09:27:03.280Z,38.2
2018-07-25T09:32:02.349Z,38.2
2018-07-25T09:37:03.188Z,38
2018-07-25T09:42:03.012Z,37.8
2018-07-25T09:47:02.444Z,38.1
2018-07-25T09:52:03.114Z,38.2
2018-07-25T09:57:02.962Z,37.9
2018-07-25T10:02:02.875Z,37.8
2018-07-25T10:07:05.500Z,38.5
2018-07-25T10:09:02.527Z,38.3
2018-07-25T10:13:27.803Z,38.7
2018-07-25T10:18:19.467Z,38.9
2018-07-25T10:23:11.494Z,39
2018-07-25T10:28:03.211Z,39.1
2018-07-25T10:32:26.869Z,39.4
2018-07-25T10:37:18.705Z,39.5
2018-07-25T10:42:10.593Z,39.7
2018-07-25T10:47:04.306Z,39.9
2018-07-25T10:52:03.469Z,39.8
2018-07-25T10:57:02.956Z,39.5
2018-07-25T11:02:02.818Z,39.4
2018-07-25T11:07:03.119Z,39.4
2018-07-25T11:11:12.311Z,39.6
2018-07-25T11:16:04.440Z,39.8
2018-07-25T11:21:02.909Z,39.7
2018-07-25T11:26:02.903Z,38.8
2018-07-25T11:31:02.576Z,37.7
2018-07-25T11:36:03.219Z,36.9
2018-07-25T11:41:02.860Z,36.6
2018-07-25T11:46:02.854Z,36.4
2018-07-25T11:51:02.674Z,36.1
2018-07-25T11:56:02.670Z,35.7
2018-07-25T12:01:02.675Z,35.4
2018-07-25T12:06:02.699Z,36.1
2018-07-25T12:11:03.181Z,37.3
2018-07-25T12:16:03.247Z,38.4
2018-07-25T12:21:26.826Z,39.3
2018-07-25T12:26:19.141Z,40
2018-07-25T12:31:10.803Z,40.5
2018-07-25T12:36:02.875Z,40.6
2018-07-25T12:41:02.684Z,40.5
2018-07-25T12:46:02.351Z,40.3
2018-07-25T12:51:03.201Z,40
2018-07-25T12:56:03.508Z,40
2018-07-25T13:01:03.486Z,39.9
2018-07-25T13:06:02.344Z,39.5
2018-07-25T13:11:03.218Z,39.1
2018-07-25T13:16:03.286Z,39
2018-07-25T13:21:03.136Z,39
2018-07-25T13:26:02.817Z,38.9
2018-07-25T13:31:02.492Z,38.8
2018-07-25T13:36:02.383Z,38.7
2018-07-25T13:41:03.161Z,38.8
2018-07-25T13:46:03.231Z,38.5
2018-07-25T13:51:02.988Z,38.3
2018-07-25T13:56:03.072Z,38.3
2018-07-25T14:01:02.919Z,38.3
2018-07-25T14:06:02.988Z,38
2018-07-25T14:11:03.031Z,37.5
2018-07-25T14:14:28.694Z,35.6
2018-07-25T14:18:03.126Z,34.8
2018-07-25T14:21:16.002Z,34.8
2018-07-25T14:26:09.049Z,34.9
2018-07-25T14:31:00.754Z,35.1
2018-07-25T14:36:02.624Z,35.5
2018-07-25T14:41:03.603Z,35.7
2018-07-25T14:46:11.361Z,36.2
2018-07-25T14:51:03.464Z,36.5
2018-07-25T14:56:02.484Z,36.7
2018-07-25T15:01:03.534Z,36.9
2018-07-25T15:06:02.581Z,36.9
2018-07-25T15:11:02.936Z,37
2018-07-25T15:16:02.683Z,37
2018-07-25T15:21:02.691Z,37
2018-07-25T15:26:02.705Z,37
2018-07-25T15:31:02.926Z,37.2
2018-07-25T15:36:02.814Z,37.1
2018-07-25T15:41:02.936Z,36.5
2018-07-25T15:46:02.975Z,36
2018-07-25T15:51:03.138Z,35.6
2018-07-25T15:56:26.958Z,35.3
2018-07-25T16:01:19.140Z,35.1
2018-07-25T16:06:10.990Z,35.1
2018-07-25T16:11:03.356Z,35
2018-07-25T16:16:03.295Z,34.7
2018-07-25T16:21:03.236Z,34.7
2018-07-25T16:26:03.190Z,34.3
2018-07-25T16:31:03.099Z,34.3
2018-07-25T16:31:14.493Z,34
2018-07-25T16:36:06.273Z,34.2
2018-07-25T16:41:02.665Z,34.3
2018-07-25T16:46:02.682Z,34.2
2018-07-25T16:51:02.837Z,34.1
2018-07-25T16:56:02.370Z,34.1
2018-07-25T17:01:02.739Z,34
2018-07-25T17:06:03.236Z,33.9
2018-07-25T17:11:03.117Z,33.8
2018-07-25T17:16:03.009Z,33.7
2018-07-25T17:21:02.673Z,33.7
2018-07-25T17:26:03.086Z,33.6
2018-07-25T17:31:02.792Z,33.6
2018-07-25T17:36:02.644Z,33.5
2018-07-25T17:41:26.592Z,33.5
2018-07-25T17:46:18.919Z,33.5
2018-07-25T17:51:11.625Z,33.3
2018-07-25T17:56:03.282Z,33
2018-07-25T18:01:02.782Z,31.7
2018-07-25T18:10:16.134Z,31
2018-07-25T18:11:03.080Z,31.1
2018-07-25T18:16:03.151Z,31
2018-07-25T18:21:03.026Z,31.1
2018-07-25T18:26:02.543Z,31
2018-07-25T18:31:02.747Z,30.9
2018-07-25T18:36:02.873Z,30.8
2018-07-25T18:36:21.193Z,30.3
2018-07-25T18:41:13.366Z,30.4
2018-07-25T18:46:05.222Z,30.4
2018-07-25T18:50:03.075Z,30
2018-07-25T18:59:02.446Z,29.8
2018-07-25T19:01:25.449Z,29.8
2018-07-25T19:02:20.134Z,29.8
2018-07-25T19:07:12.159Z,29.9
2018-07-25T19:12:04.393Z,29.9
2018-07-25T19:17:03.078Z,29.9
2018-07-25T19:22:03.127Z,29.8
2018-07-25T19:27:02.952Z,29.6
2018-07-25T19:32:02.618Z,29.5
2018-07-25T19:35:02.728Z,29.1
2018-07-25T19:40:02.474Z,29.2
2018-07-25T19:42:36.630Z,29
2018-07-25T19:50:14.448Z,28.7
2018-07-25T19:55:02.411Z,28.5
2018-07-25T19:57:31.147Z,28.5
2018-07-25T19:58:41.038Z,28.5
2018-07-25T19:59:00.686Z,28.5
2018-07-25T20:04:02.743Z,28.6
2018-07-25T20:09:02.921Z,28.3
2018-07-25T20:14:03.295Z,28.5
2018-07-25T20:19:03.251Z,28.5
2018-07-25T20:24:03.159Z,28.4
2018-07-25T20:29:02.736Z,28.2
2018-07-25T20:34:02.518Z,28
2018-07-25T20:34:40.899Z,27.3
2018-07-25T20:39:33.033Z,27.4
2018-07-25T20:44:25.044Z,27.4
2018-07-25T20:47:18.467Z,27
2018-07-25T20:52:10.465Z,27.2
2018-07-25T20:54:03.363Z,26.9
2018-07-25T20:58:02.866Z,26.7
2018-07-25T21:03:03.169Z,26.8
2018-07-25T21:08:03.162Z,26.9
2018-07-25T21:09:14.106Z,26.5
